sensor_id;sensor_type;location;lat;lon;timestamp;pressure;altitude;pressure_sealevel;temperature;humidity
16690;BME280;8458;52.220;9.884;2023-05-22T00:01:01;100718.50;;;18.81;72.98
16690;BME280;8458;52.220;9.884;2023-05-22T00:03:30;100710.66;;;18.69;73.34
16690;BME280;8458;52.220;9.884;2023-05-22T00:05:58;100713.59;;;18.64;73.65
16690;BME280;8458;52.220;9.884;2023-05-22T00:08:25;100712.56;;;18.60;74.19
16690;BME280;8458;52.220;9.884;2023-05-22T00:10:51;100713.06;;;18.62;74.06
16690;BME280;8458;52.220;9.884;2023-05-22T00:13:18;100713.38;;;18.60;74.17
16690;BME280;8458;52.220;9.884;2023-05-22T00:15:44;100715.50;;;18.55;74.09
16690;BME280;8458;52.220;9.884;2023-05-22T00:18:11;100705.41;;;18.54;74.24
16690;BME280;8458;52.220;9.884;2023-05-22T00:20:38;100700.75;;;18.49;74.38
16690;BME280;8458;52.220;9.884;2023-05-22T00:23:06;100712.81;;;18.50;74.81
16690;BME280;8458;52.220;9.884;2023-05-22T00:25:34;100707.72;;;18.52;74.39
16690;BME280;8458;52.220;9.884;2023-05-22T00:28:01;100706.03;;;18.51;74.33
16690;BME280;8458;52.220;9.884;2023-05-22T00:30:28;100697.63;;;18.51;74.65
16690;BME280;8458;52.220;9.884;2023-05-22T00:32:54;100696.59;;;18.46;74.86
16690;BME280;8458;52.220;9.884;2023-05-22T00:35:21;100700.56;;;18.45;74.66
16690;BME280;8458;52.220;9.884;2023-05-22T00:37:47;100696.09;;;18.44;74.56
16690;BME280;8458;52.220;9.884;2023-05-22T00:40:16;100692.78;;;18.42;74.64
16690;BME280;8458;52.220;9.884;2023-05-22T00:42:43;100688.13;;;18.38;74.76
16690;BME280;8458;52.220;9.884;2023-05-22T00:45:10;100698.53;;;18.37;74.67
16690;BME280;8458;52.220;9.884;2023-05-22T00:47:37;100701.66;;;18.36;75.00
16690;BME280;8458;52.220;9.884;2023-05-22T00:50:04;100697.81;;;18.32;75.22
16690;BME280;8458;52.220;9.884;2023-05-22T00:52:31;100693.16;;;18.27;75.46
16690;BME280;8458;52.220;9.884;2023-05-22T00:54:57;100702.69;;;18.26;75.58
16690;BME280;8458;52.220;9.884;2023-05-22T00:57:26;100699.38;;;18.24;75.83
16690;BME280;8458;52.220;9.884;2023-05-22T00:59:53;100706.13;;;18.23;75.79
16690;BME280;8458;52.220;9.884;2023-05-22T01:02:19;100705.00;;;18.24;75.96
16690;BME280;8458;52.220;9.884;2023-05-22T01:04:46;100696.91;;;18.22;76.05
16690;BME280;8458;52.220;9.884;2023-05-22T01:07:13;100703.34;;;18.23;75.82
16690;BME280;8458;52.220;9.884;2023-05-22T01:09:40;100701.06;;;18.25;75.76
16690;BME280;8458;52.220;9.884;2023-05-22T01:12:19;100697.09;;;18.26;75.48
16690;BME280;8458;52.220;9.884;2023-05-22T01:14:53;100690.47;;;18.22;76.01
16690;BME280;8458;52.220;9.884;2023-05-22T01:17:28;100693.91;;;18.19;75.93
16690;BME280;8458;52.220;9.884;2023-05-22T01:20:07;100683.31;;;18.16;76.23
16690;BME280;8458;52.220;9.884;2023-05-22T01:22:50;100678.97;;;18.09;76.50
16690;BME280;8458;52.220;9.884;2023-05-22T01:25:40;100676.56;;;18.03;76.69
16690;BME280;8458;52.220;9.884;2023-05-22T01:28:34;100679.69;;;18.01;77.07
16690;BME280;8458;52.220;9.884;2023-05-22T01:31:04;100675.25;;;18.00;77.16
16690;BME280;8458;52.220;9.884;2023-05-22T01:33:37;100675.03;;;17.97;77.66
16690;BME280;8458;52.220;9.884;2023-05-22T01:36:06;100670.06;;;17.94;77.98
16690;BME280;8458;52.220;9.884;2023-05-22T01:38:34;100664.75;;;17.92;77.96
16690;BME280;8458;52.220;9.884;2023-05-22T01:41:00;100666.53;;;17.88;78.31
16690;BME280;8458;52.220;9.884;2023-05-22T01:43:27;100671.09;;;17.84;78.84
16690;BME280;8458;52.220;9.884;2023-05-22T01:45:54;100668.91;;;17.81;79.05
16690;BME280;8458;52.220;9.884;2023-05-22T01:48:22;100674.53;;;17.81;79.05
16690;BME280;8458;52.220;9.884;2023-05-22T01:50:50;100668.91;;;17.81;78.87
16690;BME280;8458;52.220;9.884;2023-05-22T01:53:26;100670.59;;;17.82;79.32
16690;BME280;8458;52.220;9.884;2023-05-22T01:55:56;100664.97;;;17.82;79.01
16690;BME280;8458;52.220;9.884;2023-05-22T01:58:31;100673.25;;;17.87;78.82
16690;BME280;8458;52.220;9.884;2023-05-22T02:00:59;100669.09;;;17.84;78.72
16690;BME280;8458;52.220;9.884;2023-05-22T02:03:30;100665.97;;;17.86;78.58
16690;BME280;8458;52.220;9.884;2023-05-22T02:05:59;100667.97;;;17.85;78.67
16690;BME280;8458;52.220;9.884;2023-05-22T02:08:27;100666.84;;;17.86;78.69
16690;BME280;8458;52.220;9.884;2023-05-22T02:10:55;100671.09;;;17.84;78.53
16690;BME280;8458;52.220;9.884;2023-05-22T02:13:22;100668.91;;;17.81;79.11
16690;BME280;8458;52.220;9.884;2023-05-22T02:15:49;100659.38;;;17.82;78.81
16690;BME280;8458;52.220;9.884;2023-05-22T02:18:16;100657.69;;;17.81;78.78
16690;BME280;8458;52.220;9.884;2023-05-22T02:20:44;100653.75;;;17.82;79.19
16690;BME280;8458;52.220;9.884;2023-05-22T02:23:11;100659.69;;;17.80;78.81
16690;BME280;8458;52.220;9.884;2023-05-22T02:25:37;100653.75;;;17.82;78.75
16690;BME280;8458;52.220;9.884;2023-05-22T02:28:04;100640.38;;;17.79;78.85
16690;BME280;8458;52.220;9.884;2023-05-22T02:30:31;100642.13;;;17.74;79.09
16690;BME280;8458;52.220;9.884;2023-05-22T02:32:57;100644.00;;;17.65;79.46
16690;BME280;8458;52.220;9.884;2023-05-22T02:35:24;100632.38;;;17.58;79.74
16690;BME280;8458;52.220;9.884;2023-05-22T02:37:52;100630.81;;;17.52;80.00
16690;BME280;8458;52.220;9.884;2023-05-22T02:40:18;100628.97;;;17.47;80.46
16690;BME280;8458;52.220;9.884;2023-05-22T02:42:45;100625.16;;;17.43;80.93
16690;BME280;8458;52.220;9.884;2023-05-22T02:45:11;100632.31;;;17.35;81.30
16690;BME280;8458;52.220;9.884;2023-05-22T02:47:38;100633.25;;;17.31;81.41
16690;BME280;8458;52.220;9.884;2023-05-22T02:50:05;100627.22;;;17.24;82.32
16690;BME280;8458;52.220;9.884;2023-05-22T02:52:32;100636.56;;;17.19;82.71
16690;BME280;8458;52.220;9.884;2023-05-22T02:55:00;100641.09;;;17.15;82.93
16690;BME280;8458;52.220;9.884;2023-05-22T02:57:27;100635.81;;;17.13;82.92
16690;BME280;8458;52.220;9.884;2023-05-22T02:59:53;100636.16;;;17.12;83.42
16690;BME280;8458;52.220;9.884;2023-05-22T03:02:19;100645.28;;;17.17;83.24
16690;BME280;8458;52.220;9.884;2023-05-22T03:04:46;100640.50;;;17.18;83.18
16690;BME280;8458;52.220;9.884;2023-05-22T03:07:12;100646.53;;;17.25;82.68
16690;BME280;8458;52.220;9.884;2023-05-22T03:09:39;100633.03;;;17.27;82.96
16690;BME280;8458;52.220;9.884;2023-05-22T03:12:08;100634.69;;;17.28;82.71
16690;BME280;8458;52.220;9.884;2023-05-22T03:14:34;100644.22;;;17.27;82.68
16690;BME280;8458;52.220;9.884;2023-05-22T03:17:01;100640.50;;;17.32;82.54
16690;BME280;8458;52.220;9.884;2023-05-22T03:19:28;100639.06;;;17.34;81.97
16690;BME280;8458;52.220;9.884;2023-05-22T03:21:54;100643.53;;;17.35;81.77
16690;BME280;8458;52.220;9.884;2023-05-22T03:24:21;100643.41;;;17.41;81.41
16690;BME280;8458;52.220;9.884;2023-05-22T03:26:48;100636.13;;;17.39;80.95
16690;BME280;8458;52.220;9.884;2023-05-22T03:29:16;100641.72;;;17.39;80.78
16690;BME280;8458;52.220;9.884;2023-05-22T03:31:43;100632.19;;;17.41;80.71
16690;BME280;8458;52.220;9.884;2023-05-22T03:34:10;100632.41;;;17.44;80.07
16690;BME280;8458;52.220;9.884;2023-05-22T03:36:36;100627.72;;;17.39;80.08
16690;BME280;8458;52.220;9.884;2023-05-22T03:39:03;100638.44;;;17.37;80.35
16690;BME280;8458;52.220;9.884;2023-05-22T03:41:30;100624.09;;;17.39;80.51
16690;BME280;8458;52.220;9.884;2023-05-22T03:43:56;100624.91;;;17.39;79.85
16690;BME280;8458;52.220;9.884;2023-05-22T03:46:24;100635.13;;;17.35;79.85
16690;BME280;8458;52.220;9.884;2023-05-22T03:48:51;100622.56;;;17.33;80.42
16690;BME280;8458;52.220;9.884;2023-05-22T03:51:17;100637.38;;;17.33;80.42
16690;BME280;8458;52.220;9.884;2023-05-22T03:53:44;100628.47;;;17.31;80.51
16690;BME280;8458;52.220;9.884;2023-05-22T03:56:11;100634.88;;;17.32;80.74
16690;BME280;8458;52.220;9.884;2023-05-22T03:58:37;100637.38;;;17.33;80.79
16690;BME280;8458;52.220;9.884;2023-05-22T04:01:04;100632.31;;;17.35;80.88
16690;BME280;8458;52.220;9.884;2023-05-22T04:03:31;100627.22;;;17.37;80.81
16690;BME280;8458;52.220;9.884;2023-05-22T04:05:58;100636.44;;;17.38;80.99
16690;BME280;8458;52.220;9.884;2023-05-22T04:08:24;100641.13;;;17.43;81.09
16690;BME280;8458;52.220;9.884;2023-05-22T04:10:51;100637.69;;;17.46;81.12
16690;BME280;8458;52.220;9.884;2023-05-22T04:13:18;100642.97;;;17.47;80.40
16690;BME280;8458;52.220;9.884;2023-05-22T04:15:45;100632.06;;;17.46;80.04
16690;BME280;8458;52.220;9.884;2023-05-22T04:18:11;100652.25;;;17.48;80.08
16690;BME280;8458;52.220;9.884;2023-05-22T04:20:39;100635.94;;;17.50;79.99
16690;BME280;8458;52.220;9.884;2023-05-22T04:23:06;100638.22;;;17.48;80.54
16690;BME280;8458;52.220;9.884;2023-05-22T04:25:33;100649.44;;;17.48;80.52
16690;BME280;8458;52.220;9.884;2023-05-22T04:28:00;100651.06;;;17.49;80.62
16690;BME280;8458;52.220;9.884;2023-05-22T04:30:28;100637.47;;;17.56;80.54
16690;BME280;8458;52.220;9.884;2023-05-22T04:32:54;100649.81;;;17.55;80.71
16690;BME280;8458;52.220;9.884;2023-05-22T04:35:21;100638.63;;;17.55;80.79
16690;BME280;8458;52.220;9.884;2023-05-22T04:37:49;100644.94;;;17.61;80.66
16690;BME280;8458;52.220;9.884;2023-05-22T04:40:16;100641.84;;;17.62;80.69
16690;BME280;8458;52.220;9.884;2023-05-22T04:42:42;100644.00;;;17.65;80.92
16690;BME280;8458;52.220;9.884;2023-05-22T04:45:10;100649.81;;;17.69;81.00
16690;BME280;8458;52.220;9.884;2023-05-22T04:47:38;100652.53;;;17.74;81.05
16690;BME280;8458;52.220;9.884;2023-05-22T04:50:06;100648.56;;;17.75;81.13
16690;BME280;8458;52.220;9.884;2023-05-22T04:52:33;100649.41;;;17.76;81.42
16690;BME280;8458;52.220;9.884;2023-05-22T04:55:01;100649.59;;;17.79;81.48
16690;BME280;8458;52.220;9.884;2023-05-22T04:57:28;100645.34;;;17.82;81.38
16690;BME280;8458;52.220;9.884;2023-05-22T04:59:54;100648.16;;;17.82;81.52
16690;BME280;8458;52.220;9.884;2023-05-22T05:02:21;100650.63;;;17.83;81.51
16690;BME280;8458;52.220;9.884;2023-05-22T05:04:47;100635.25;;;17.81;81.38
16690;BME280;8458;52.220;9.884;2023-05-22T05:07:14;100630.06;;;17.88;80.51
16690;BME280;8458;52.220;9.884;2023-05-22T05:09:41;100632.25;;;17.91;79.98
16690;BME280;8458;52.220;9.884;2023-05-22T05:12:09;100623.22;;;17.94;79.76
16690;BME280;8458;52.220;9.884;2023-05-22T05:14:36;100622.50;;;17.88;80.06
16690;BME280;8458;52.220;9.884;2023-05-22T05:17:02;100620.50;;;17.89;79.82
16690;BME280;8458;52.220;9.884;2023-05-22T05:19:28;100614.91;;;17.89;80.23
16690;BME280;8458;52.220;9.884;2023-05-22T05:21:55;100613.97;;;17.80;80.79
16690;BME280;8458;52.220;9.884;2023-05-22T05:24:21;100612.63;;;17.77;81.28
16690;BME280;8458;52.220;9.884;2023-05-22T05:26:48;100621.56;;;17.79;81.94
16690;BME280;8458;52.220;9.884;2023-05-22T05:29:16;100614.28;;;17.78;81.67
16690;BME280;8458;52.220;9.884;2023-05-22T05:31:43;100612.00;;;17.80;81.87
16690;BME280;8458;52.220;9.884;2023-05-22T05:34:09;100619.78;;;17.83;81.73
16690;BME280;8458;52.220;9.884;2023-05-22T05:36:37;100622.28;;;17.85;81.83
16690;BME280;8458;52.220;9.884;2023-05-22T05:39:04;100619.97;;;17.87;82.21
16690;BME280;8458;52.220;9.884;2023-05-22T05:41:31;100624.66;;;17.91;81.81
16690;BME280;8458;52.220;9.884;2023-05-22T05:43:57;100622.59;;;17.97;81.64
16690;BME280;8458;52.220;9.884;2023-05-22T05:46:26;100621.97;;;18.00;80.96
16690;BME280;8458;52.220;9.884;2023-05-22T05:48:53;100624.75;;;18.00;81.40
16690;BME280;8458;52.220;9.884;2023-05-22T05:51:19;100617.97;;;18.01;81.30
16690;BME280;8458;52.220;9.884;2023-05-22T05:53:46;100616.34;;;18.00;81.88
16690;BME280;8458;52.220;9.884;2023-05-22T05:56:12;100619.66;;;18.02;82.12
16690;BME280;8458;52.220;9.884;2023-05-22T05:58:40;100621.81;;;18.05;81.98
16690;BME280;8458;52.220;9.884;2023-05-22T06:01:06;100618.88;;;18.10;81.75
16690;BME280;8458;52.220;9.884;2023-05-22T06:03:34;100625.53;;;18.15;81.86
16690;BME280;8458;52.220;9.884;2023-05-22T06:06:00;100623.75;;;18.19;81.70
16690;BME280;8458;52.220;9.884;2023-05-22T06:08:27;100620.81;;;18.24;81.19
16690;BME280;8458;52.220;9.884;2023-05-22T06:10:53;100623.50;;;18.29;81.72
16690;BME280;8458;52.220;9.884;2023-05-22T06:13:20;100632.81;;;18.38;81.29
16690;BME280;8458;52.220;9.884;2023-05-22T06:15:46;100622.59;;;18.42;80.17
16690;BME280;8458;52.220;9.884;2023-05-22T06:18:13;100623.19;;;18.53;80.45
16690;BME280;8458;52.220;9.884;2023-05-22T06:20:41;100627.31;;;18.56;78.84
16690;BME280;8458;52.220;9.884;2023-05-22T06:23:07;100628.81;;;18.62;78.51
16690;BME280;8458;52.220;9.884;2023-05-22T06:25:35;100630.34;;;18.68;78.41
16690;BME280;8458;52.220;9.884;2023-05-22T06:28:03;100624.94;;;18.72;78.52
16690;BME280;8458;52.220;9.884;2023-05-22T06:30:30;100626.63;;;18.81;79.51
16690;BME280;8458;52.220;9.884;2023-05-22T06:32:56;100624.75;;;18.91;78.85
16690;BME280;8458;52.220;9.884;2023-05-22T06:35:23;100625.22;;;18.93;78.03
16690;BME280;8458;52.220;9.884;2023-05-22T06:37:51;100624.97;;;19.03;78.70
16690;BME280;8458;52.220;9.884;2023-05-22T06:40:17;100622.19;;;19.12;79.91
16690;BME280;8458;52.220;9.884;2023-05-22T06:42:43;100630.31;;;19.22;80.63
16690;BME280;8458;52.220;9.884;2023-05-22T06:45:10;100629.72;;;19.34;78.10
16690;BME280;8458;52.220;9.884;2023-05-22T06:47:37;100628.09;;;19.42;77.57
16690;BME280;8458;52.220;9.884;2023-05-22T06:50:04;100632.41;;;19.48;78.03
16690;BME280;8458;52.220;9.884;2023-05-22T06:52:31;100631.44;;;19.52;76.24
16690;BME280;8458;52.220;9.884;2023-05-22T06:54:59;100637.41;;;19.60;74.67
16690;BME280;8458;52.220;9.884;2023-05-22T06:57:29;100638.91;;;19.66;76.59
16690;BME280;8458;52.220;9.884;2023-05-22T06:59:56;100638.59;;;19.76;77.80
16690;BME280;8458;52.220;9.884;2023-05-22T07:02:22;100638.81;;;19.88;78.02
16690;BME280;8458;52.220;9.884;2023-05-22T07:04:49;100636.81;;;19.98;76.27
16690;BME280;8458;52.220;9.884;2023-05-22T07:07:16;100644.09;;;20.08;77.89
16690;BME280;8458;52.220;9.884;2023-05-22T07:09:43;100640.63;;;20.11;76.23
16690;BME280;8458;52.220;9.884;2023-05-22T07:12:11;100641.13;;;20.21;75.89
16690;BME280;8458;52.220;9.884;2023-05-22T07:14:37;100638.66;;;20.29;74.97
16690;BME280;8458;52.220;9.884;2023-05-22T07:17:04;100639.66;;;20.33;74.45
16690;BME280;8458;52.220;9.884;2023-05-22T07:19:31;100637.16;;;20.40;75.69
16690;BME280;8458;52.220;9.884;2023-05-22T07:21:58;100630.19;;;20.46;76.54
16690;BME280;8458;52.220;9.884;2023-05-22T07:24:24;100636.28;;;20.57;74.45
16690;BME280;8458;52.220;9.884;2023-05-22T07:26:51;100643.75;;;20.62;74.14
16690;BME280;8458;52.220;9.884;2023-05-22T07:29:19;100639.13;;;20.66;73.93
16690;BME280;8458;52.220;9.884;2023-05-22T07:31:45;100645.09;;;20.73;73.84
16690;BME280;8458;52.220;9.884;2023-05-22T07:34:12;100640.75;;;20.84;75.61
16690;BME280;8458;52.220;9.884;2023-05-22T07:36:38;100636.41;;;20.95;72.90
16690;BME280;8458;52.220;9.884;2023-05-22T07:39:05;100632.25;;;21.02;73.78
16690;BME280;8458;52.220;9.884;2023-05-22T07:41:32;100631.03;;;21.11;73.08
16690;BME280;8458;52.220;9.884;2023-05-22T07:43:58;100626.84;;;21.18;71.13
16690;BME280;8458;52.220;9.884;2023-05-22T07:46:26;100632.50;;;21.18;71.06
16690;BME280;8458;52.220;9.884;2023-05-22T07:48:53;100632.66;;;21.21;71.18
16690;BME280;8458;52.220;9.884;2023-05-22T07:51:19;100629.66;;;21.26;73.26
16690;BME280;8458;52.220;9.884;2023-05-22T07:53:45;100626.63;;;21.31;71.57
16690;BME280;8458;52.220;9.884;2023-05-22T07:56:12;100625.28;;;21.38;70.27
16690;BME280;8458;52.220;9.884;2023-05-22T07:58:38;100622.59;;;21.50;72.31
16690;BME280;8458;52.220;9.884;2023-05-22T08:01:06;100617.88;;;21.63;73.42
16690;BME280;8458;52.220;9.884;2023-05-22T08:03:34;100616.94;;;21.80;71.75
16690;BME280;8458;52.220;9.884;2023-05-22T08:06:01;100616.34;;;21.95;70.82
16690;BME280;8458;52.220;9.884;2023-05-22T08:08:27;100619.91;;;22.05;69.47
16690;BME280;8458;52.220;9.884;2023-05-22T08:10:54;100624.88;;;22.08;70.51
16690;BME280;8458;52.220;9.884;2023-05-22T08:13:21;100630.63;;;22.11;72.01
16690;BME280;8458;52.220;9.884;2023-05-22T08:15:47;100628.44;;;22.17;70.37
16690;BME280;8458;52.220;9.884;2023-05-22T08:18:14;100631.53;;;22.24;71.81
16690;BME280;8458;52.220;9.884;2023-05-22T08:20:42;100620.84;;;22.30;70.16
16690;BME280;8458;52.220;9.884;2023-05-22T08:23:08;100629.13;;;22.35;68.73
16690;BME280;8458;52.220;9.884;2023-05-22T08:25:34;100628.56;;;22.42;69.04
16690;BME280;8458;52.220;9.884;2023-05-22T08:28:01;100625.78;;;22.54;70.90
16690;BME280;8458;52.220;9.884;2023-05-22T08:30:28;100623.00;;;22.66;68.75
16690;BME280;8458;52.220;9.884;2023-05-22T08:32:54;100620.91;;;22.76;68.33
16690;BME280;8458;52.220;9.884;2023-05-22T08:35:21;100621.28;;;22.86;69.07
16690;BME280;8458;52.220;9.884;2023-05-22T08:37:48;100613.41;;;22.92;69.51
16690;BME280;8458;52.220;9.884;2023-05-22T08:40:16;100608.22;;;22.94;68.25
16690;BME280;8458;52.220;9.884;2023-05-22T08:42:45;100609.19;;;22.98;67.20
16690;BME280;8458;52.220;9.884;2023-05-22T08:45:12;100606.47;;;23.02;68.60
16690;BME280;8458;52.220;9.884;2023-05-22T08:47:41;100596.94;;;23.06;66.96
16690;BME280;8458;52.220;9.884;2023-05-22T08:50:10;100599.59;;;23.12;67.51
16690;BME280;8458;52.220;9.884;2023-05-22T08:52:43;100600.50;;;23.16;68.46
16690;BME280;8458;52.220;9.884;2023-05-22T08:55:13;100599.09;;;23.09;67.61
16690;BME280;8458;52.220;9.884;2023-05-22T08:57:41;100591.44;;;23.10;68.59
16690;BME280;8458;52.220;9.884;2023-05-22T09:00:08;100598.38;;;23.13;69.41
16690;BME280;8458;52.220;9.884;2023-05-22T09:02:36;100589.91;;;23.13;68.95
16690;BME280;8458;52.220;9.884;2023-05-22T09:05:06;100593.44;;;23.22;71.34
16690;BME280;8458;52.220;9.884;2023-05-22T09:07:33;100591.66;;;23.30;69.34
16690;BME280;8458;52.220;9.884;2023-05-22T09:09:59;100592.97;;;23.44;71.15
16690;BME280;8458;52.220;9.884;2023-05-22T09:12:31;100592.25;;;23.60;68.06
16690;BME280;8458;52.220;9.884;2023-05-22T09:15:04;100591.03;;;23.73;67.14
16690;BME280;8458;52.220;9.884;2023-05-22T09:17:33;100587.38;;;23.85;65.82
16690;BME280;8458;52.220;9.884;2023-05-22T09:19:59;100586.06;;;23.95;66.15
16690;BME280;8458;52.220;9.884;2023-05-22T09:22:34;100593.03;;;23.97;65.21
16690;BME280;8458;52.220;9.884;2023-05-22T09:25:00;100595.75;;;23.94;63.84
16690;BME280;8458;52.220;9.884;2023-05-22T09:27:27;100591.84;;;23.98;66.01
16690;BME280;8458;52.220;9.884;2023-05-22T09:29:55;100578.72;;;24.06;65.28
16690;BME280;8458;52.220;9.884;2023-05-22T09:32:22;100582.41;;;24.23;66.26
16690;BME280;8458;52.220;9.884;2023-05-22T09:34:49;100572.69;;;24.36;66.34
16690;BME280;8458;52.220;9.884;2023-05-22T09:37:16;100577.84;;;24.46;66.43
16690;BME280;8458;52.220;9.884;2023-05-22T09:39:44;100575.66;;;24.56;64.77
16690;BME280;8458;52.220;9.884;2023-05-22T09:42:13;100579.69;;;24.55;64.06
16690;BME280;8458;52.220;9.884;2023-05-22T09:44:41;100579.69;;;24.55;62.80
16690;BME280;8458;52.220;9.884;2023-05-22T09:47:09;100577.28;;;24.57;64.45
16690;BME280;8458;52.220;9.884;2023-05-22T09:49:40;100578.25;;;24.61;64.88
16690;BME280;8458;52.220;9.884;2023-05-22T09:52:08;100580.00;;;24.65;62.93
16690;BME280;8458;52.220;9.884;2023-05-22T09:54:38;100582.19;;;24.72;63.27
16690;BME280;8458;52.220;9.884;2023-05-22T09:57:09;100580.75;;;24.78;62.97
16690;BME280;8458;52.220;9.884;2023-05-22T09:59:40;100583.78;;;24.85;62.94
16690;BME280;8458;52.220;9.884;2023-05-22T10:02:09;100579.03;;;24.90;63.74
16690;BME280;8458;52.220;9.884;2023-05-22T10:04:38;100572.53;;;24.89;63.14
16690;BME280;8458;52.220;9.884;2023-05-22T10:07:07;100570.16;;;24.91;63.43
16690;BME280;8458;52.220;9.884;2023-05-22T10:09:37;100576.56;;;24.88;61.40
16690;BME280;8458;52.220;9.884;2023-05-22T10:12:05;100577.75;;;24.87;64.00
16690;BME280;8458;52.220;9.884;2023-05-22T10:14:33;100572.16;;;24.91;63.71
16690;BME280;8458;52.220;9.884;2023-05-22T10:17:00;100565.75;;;24.94;60.43
16690;BME280;8458;52.220;9.884;2023-05-22T10:19:30;100566.22;;;24.96;64.74
16690;BME280;8458;52.220;9.884;2023-05-22T10:21:59;100567.59;;;25.02;63.30
16690;BME280;8458;52.220;9.884;2023-05-22T10:24:26;100556.78;;;25.08;61.48
16690;BME280;8458;52.220;9.884;2023-05-22T10:26:53;100559.44;;;25.16;61.25
16690;BME280;8458;52.220;9.884;2023-05-22T10:29:23;100562.19;;;25.29;63.21
16690;BME280;8458;52.220;9.884;2023-05-22T10:31:55;100558.50;;;25.44;63.85
16690;BME280;8458;52.220;9.884;2023-05-22T10:34:28;100550.50;;;25.66;63.51
16690;BME280;8458;52.220;9.884;2023-05-22T10:37:07;100546.41;;;25.83;62.40
16690;BME280;8458;52.220;9.884;2023-05-22T10:39:41;100545.59;;;26.02;63.02
16690;BME280;8458;52.220;9.884;2023-05-22T10:42:11;100546.34;;;26.18;63.02
16690;BME280;8458;52.220;9.884;2023-05-22T10:44:38;100538.53;;;26.35;64.55
16690;BME280;8458;52.220;9.884;2023-05-22T10:47:09;100538.81;;;26.49;63.11
16690;BME280;8458;52.220;9.884;2023-05-22T10:49:41;100540.72;;;26.64;61.92
16690;BME280;8458;52.220;9.884;2023-05-22T10:52:10;100533.53;;;26.71;58.55
16690;BME280;8458;52.220;9.884;2023-05-22T10:54:39;100534.13;;;26.80;60.63
16690;BME280;8458;52.220;9.884;2023-05-22T10:57:10;100533.09;;;26.92;60.57
16690;BME280;8458;52.220;9.884;2023-05-22T10:59:38;100538.97;;;27.02;60.23
16690;BME280;8458;52.220;9.884;2023-05-22T11:02:09;100540.34;;;27.12;57.81
16690;BME280;8458;52.220;9.884;2023-05-22T11:04:43;100532.06;;;27.27;57.92
16690;BME280;8458;52.220;9.884;2023-05-22T11:07:11;100533.88;;;27.39;58.20
16690;BME280;8458;52.220;9.884;2023-05-22T11:09:40;100536.19;;;27.56;59.33
16690;BME280;8458;52.220;9.884;2023-05-22T11:12:23;100536.31;;;27.67;56.18
16690;BME280;8458;52.220;9.884;2023-05-22T11:14:53;100530.22;;;27.68;58.32
16690;BME280;8458;52.220;9.884;2023-05-22T11:17:21;100523.75;;;27.71;55.01
16690;BME280;8458;52.220;9.884;2023-05-22T11:19:56;100527.72;;;27.63;57.01
16690;BME280;8458;52.220;9.884;2023-05-22T11:22:30;100521.09;;;27.55;56.46
16690;BME280;8458;52.220;9.884;2023-05-22T11:24:57;100519.41;;;27.51;55.27
16690;BME280;8458;52.220;9.884;2023-05-22T11:27:24;100525.03;;;27.44;54.71
16690;BME280;8458;52.220;9.884;2023-05-22T11:29:50;100521.06;;;27.52;56.26
16690;BME280;8458;52.220;9.884;2023-05-22T11:32:17;100515.47;;;27.59;56.89
16690;BME280;8458;52.220;9.884;2023-05-22T11:34:45;100523.19;;;27.59;56.36
16690;BME280;8458;52.220;9.884;2023-05-22T11:37:14;100522.91;;;27.67;53.44
16690;BME280;8458;52.220;9.884;2023-05-22T11:39:48;100517.22;;;27.67;54.85
16690;BME280;8458;52.220;9.884;2023-05-22T11:42:16;100515.66;;;27.73;54.67
16690;BME280;8458;52.220;9.884;2023-05-22T11:44:43;100516.56;;;27.81;54.76
16690;BME280;8458;52.220;9.884;2023-05-22T11:47:09;100515.84;;;27.88;53.83
16690;BME280;8458;52.220;9.884;2023-05-22T11:49:36;100516.00;;;27.99;53.84
16690;BME280;8458;52.220;9.884;2023-05-22T11:52:03;100509.22;;;28.11;56.55
16690;BME280;8458;52.220;9.884;2023-05-22T11:54:30;100506.41;;;28.14;55.67
16690;BME280;8458;52.220;9.884;2023-05-22T11:56:58;100496.78;;;28.26;55.63
16690;BME280;8458;52.220;9.884;2023-05-22T11:59:25;100492.78;;;28.34;51.85
16690;BME280;8458;52.220;9.884;2023-05-22T12:01:52;100494.34;;;28.28;52.32
16690;BME280;8458;52.220;9.884;2023-05-22T12:04:19;100498.25;;;28.13;52.28
16690;BME280;8458;52.220;9.884;2023-05-22T12:06:45;100489.16;;;28.00;54.30
16690;BME280;8458;52.220;9.884;2023-05-22T12:09:12;100492.03;;;28.03;55.67
16690;BME280;8458;52.220;9.884;2023-05-22T12:11:38;100474.84;;;27.96;52.78
16690;BME280;8458;52.220;9.884;2023-05-22T12:14:10;100478.94;;;27.95;54.71
16690;BME280;8458;52.220;9.884;2023-05-22T12:16:36;100481.84;;;28.02;55.00
16690;BME280;8458;52.220;9.884;2023-05-22T12:19:03;100477.81;;;28.07;55.39
16690;BME280;8458;52.220;9.884;2023-05-22T12:21:30;100477.03;;;28.06;52.41
16690;BME280;8458;52.220;9.884;2023-05-22T12:23:57;100475.38;;;28.05;55.59
16690;BME280;8458;52.220;9.884;2023-05-22T12:26:27;100470.44;;;28.02;56.99
16690;BME280;8458;52.220;9.884;2023-05-22T12:28:54;100475.38;;;28.05;52.66
16690;BME280;8458;52.220;9.884;2023-05-22T12:31:21;100468.13;;;28.12;54.12
16690;BME280;8458;52.220;9.884;2023-05-22T12:33:48;100463.38;;;28.23;53.85
16690;BME280;8458;52.220;9.884;2023-05-22T12:36:18;100462.19;;;28.28;51.89
16690;BME280;8458;52.220;9.884;2023-05-22T12:38:44;100467.06;;;28.27;54.64
16690;BME280;8458;52.220;9.884;2023-05-22T12:41:10;100470.00;;;28.34;53.14
16690;BME280;8458;52.220;9.884;2023-05-22T12:43:37;100470.06;;;28.41;53.67
16690;BME280;8458;52.220;9.884;2023-05-22T12:46:03;100457.09;;;28.48;52.46
16690;BME280;8458;52.220;9.884;2023-05-22T12:48:31;100460.47;;;28.60;53.16
16690;BME280;8458;52.220;9.884;2023-05-22T12:50:58;100462.22;;;28.72;55.72
16690;BME280;8458;52.220;9.884;2023-05-22T12:53:24;100461.75;;;28.63;50.37
16690;BME280;8458;52.220;9.884;2023-05-22T12:55:51;100457.94;;;28.52;49.67
16690;BME280;8458;52.220;9.884;2023-05-22T12:58:17;100457.81;;;28.37;51.36
16690;BME280;8458;52.220;9.884;2023-05-22T13:00:44;100460.97;;;28.29;51.77
16690;BME280;8458;52.220;9.884;2023-05-22T13:03:10;100465.44;;;28.26;51.40